createdAt,value
2017-06-20T00:01:58.022Z,6.20
2017-06-20T00:04:27.101Z,7.03
2017-06-20T00:06:55.537Z,6.20
2017-06-20T00:09:23.778Z,7.33
2017-06-20T00:11:52.838Z,7.20
2017-06-20T00:14:21.118Z,7.10
2017-06-20T00:16:49.510Z,6.30
2017-06-20T00:19:18.521Z,7.03
2017-06-20T00:21:47.532Z,6.83
2017-06-20T00:24:15.792Z,7.00
2017-06-20T00:26:44.817Z,6.50
2017-06-20T00:29:13.065Z,7.30
2017-06-20T00:31:41.367Z,5.90
2017-06-20T00:34:09.612Z,6.00
2017-06-20T00:36:38.621Z,6.00
2017-06-20T00:39:06.856Z,6.43
2017-06-20T00:41:35.113Z,6.90
2017-06-20T00:44:03.364Z,8.43
2017-06-20T00:46:31.843Z,7.43
2017-06-20T00:49:00.086Z,7.90
2017-06-20T00:51:28.390Z,8.13
2017-06-20T00:53:56.626Z,6.80
2017-06-20T00:56:25.666Z,7.30
2017-06-20T00:58:53.937Z,8.53
2017-06-20T01:01:22.165Z,7.07
2017-06-20T01:03:51.185Z,7.13
2017-06-20T01:06:19.508Z,6.73
2017-06-20T01:08:47.804Z,6.63
2017-06-20T01:11:16.146Z,7.43
2017-06-20T01:13:44.417Z,7.17
2017-06-20T01:16:12.648Z,7.23
2017-06-20T01:18:41.673Z,7.80
2017-06-20T01:21:09.910Z,8.30
2017-06-20T01:23:39.049Z,7.30
2017-06-20T01:26:07.296Z,8.40
2017-06-20T01:28:35.560Z,8.00
2017-06-20T01:31:04.571Z,9.00
2017-06-20T01:33:32.806Z,8.87
2017-06-20T01:36:01.070Z,9.50
2017-06-20T01:38:29.314Z,8.40
2017-06-20T01:40:57.573Z,7.73
2017-06-20T01:43:25.865Z,7.60
2017-06-20T01:45:54.109Z,8.30
2017-06-20T01:48:22.382Z,7.97
2017-06-20T01:50:50.690Z,7.60
2017-06-20T01:53:18.927Z,7.73
2017-06-20T01:55:48.072Z,7.60
2017-06-20T01:58:16.308Z,7.70
2017-06-20T02:00:44.544Z,7.73
2017-06-20T02:03:12.804Z,8.80
2017-06-20T02:05:41.045Z,8.70
2017-06-20T02:08:09.312Z,10.10
2017-06-20T02:10:37.655Z,9.77
2017-06-20T02:13:05.918Z,10.70
2017-06-20T02:15:34.163Z,10.40
2017-06-20T02:18:02.439Z,10.47
2017-06-20T02:20:30.707Z,10.13
2017-06-20T02:22:59.092Z,11.80
2017-06-20T02:25:27.372Z,10.83
2017-06-20T02:27:55.605Z,11.30
2017-06-20T02:30:24.650Z,11.17
2017-06-20T02:32:52.886Z,11.17
2017-06-20T02:35:21.235Z,11.80
2017-06-20T02:37:49.574Z,11.00
2017-06-20T02:40:17.817Z,11.10
2017-06-20T02:42:46.082Z,9.40
2017-06-20T02:45:15.093Z,9.47
2017-06-20T02:47:43.449Z,10.43
2017-06-20T02:50:11.762Z,9.97
2017-06-20T02:52:40.009Z,12.53
2017-06-20T02:55:08.272Z,10.10
2017-06-20T02:57:37.295Z,10.10
2017-06-20T03:00:05.578Z,9.87
2017-06-20T03:02:33.826Z,9.83
2017-06-20T03:05:02.094Z,9.73
2017-06-20T03:07:31.174Z,9.83
2017-06-20T03:09:59.509Z,9.70
2017-06-20T03:12:27.882Z,9.70
2017-06-20T03:14:56.161Z,10.50
2017-06-20T03:17:24.439Z,12.40
2017-06-20T03:19:52.769Z,10.70
2017-06-20T03:22:21.814Z,11.00
2017-06-20T03:24:50.066Z,12.00
2017-06-20T03:27:18.373Z,12.97
2017-06-20T03:29:46.633Z,11.10
2017-06-20T03:32:14.885Z,12.53
2017-06-20T03:34:43.144Z,11.00
2017-06-20T03:37:11.399Z,11.20
2017-06-20T03:39:39.682Z,11.80
2017-06-20T03:42:08.824Z,11.90
2017-06-20T03:44:37.126Z,12.20
2017-06-20T03:47:05.478Z,13.03
2017-06-20T03:49:33.805Z,12.07
2017-06-20T03:52:02.829Z,12.10
2017-06-20T03:54:31.145Z,12.57
2017-06-20T03:56:59.407Z,12.83
2017-06-20T03:59:27.685Z,12.60
2017-06-20T04:01:55.928Z,13.63
2017-06-20T04:04:24.198Z,13.23
2017-06-20T04:06:52.513Z,12.37
2017-06-20T04:09:20.884Z,11.47
2017-06-20T04:11:49.172Z,11.37
2017-06-20T04:14:17.448Z,11.07
2017-06-20T04:16:45.805Z,12.53
2017-06-20T04:19:14.066Z,11.30
2017-06-20T04:21:46.290Z,11.63
2017-06-20T04:24:14.538Z,11.30
2017-06-20T04:26:42.795Z,12.30
2017-06-20T04:29:11.044Z,12.70
2017-06-20T04:31:40.065Z,12.07
2017-06-20T04:34:08.306Z,12.90
2017-06-20T04:36:37.345Z,12.73
2017-06-20T04:39:05.719Z,12.90
2017-06-20T04:41:33.969Z,11.90
2017-06-20T04:44:02.289Z,11.43
2017-06-20T04:46:30.537Z,12.63
2017-06-20T04:48:58.815Z,12.63
2017-06-20T04:51:27.067Z,12.67
2017-06-20T04:53:55.317Z,11.93
2017-06-20T04:56:24.473Z,11.47
2017-06-20T04:58:52.718Z,12.53
2017-06-20T05:01:21.043Z,11.90
2017-06-20T05:03:49.297Z,12.50
2017-06-20T05:06:17.775Z,12.07
2017-06-20T05:08:46.084Z,11.83
2017-06-20T05:11:14.300Z,11.97
2017-06-20T05:13:42.596Z,11.10
2017-06-20T05:16:10.825Z,11.70
2017-06-20T05:18:39.852Z,10.60
2017-06-20T05:21:08.149Z,10.83
2017-06-20T05:23:36.513Z,10.97
2017-06-20T05:26:04.790Z,11.30
2017-06-20T05:28:33.040Z,11.50
2017-06-20T05:31:01.314Z,12.70
2017-06-20T05:33:29.686Z,12.30
2017-06-20T05:35:58.818Z,12.97
2017-06-20T05:38:27.085Z,12.00
2017-06-20T05:40:55.397Z,11.33
2017-06-20T05:43:23.640Z,11.67
2017-06-20T05:45:51.889Z,11.83
2017-06-20T05:48:20.146Z,12.23
2017-06-20T05:50:48.395Z,12.23
2017-06-20T05:53:16.651Z,13.07
2017-06-20T05:55:44.893Z,12.90
2017-06-20T05:58:13.192Z,12.40
2017-06-20T06:00:41.448Z,12.00
2017-06-20T06:03:09.751Z,12.53
2017-06-20T06:05:38.117Z,13.10
2017-06-20T06:08:06.419Z,12.57
2017-06-20T06:10:34.677Z,12.00
2017-06-20T06:13:02.925Z,12.23
2017-06-20T06:15:32.012Z,12.43
2017-06-20T06:18:00.350Z,11.60
2017-06-20T06:20:29.002Z,11.70
2017-06-20T06:22:57.261Z,11.40
2017-06-20T06:25:25.514Z,11.80
2017-06-20T06:27:54.545Z,11.80
2017-06-20T06:30:22.799Z,9.90
2017-06-20T06:32:51.229Z,10.47
2017-06-20T06:35:20.316Z,10.17
2017-06-20T06:37:48.560Z,10.60
2017-06-20T06:40:16.915Z,10.83
2017-06-20T06:42:45.166Z,9.97
2017-06-20T06:45:13.425Z,10.07
2017-06-20T06:47:41.776Z,11.63
2017-06-20T06:50:10.111Z,11.20
2017-06-20T06:52:39.134Z,11.37
2017-06-20T06:55:07.417Z,18.27
2017-06-20T06:57:36.465Z,10.83
2017-06-20T07:00:04.698Z,9.40
2017-06-20T07:02:32.963Z,10.17
2017-06-20T07:05:01.237Z,10.33
2017-06-20T07:07:29.612Z,11.30
2017-06-20T07:09:57.860Z,10.43
2017-06-20T07:12:26.402Z,9.53
2017-06-20T07:14:54.757Z,10.33
2017-06-20T07:17:23.022Z,9.40
2017-06-20T07:19:51.256Z,9.70
2017-06-20T07:22:20.340Z,9.17
2017-06-20T07:24:49.386Z,9.13
2017-06-20T07:27:17.653Z,9.23
2017-06-20T07:29:45.902Z,9.10
2017-06-20T07:32:14.931Z,10.17
2017-06-20T07:34:43.266Z,9.40
2017-06-20T07:37:12.278Z,8.93
2017-06-20T07:39:40.527Z,9.53
2017-06-20T07:42:09.568Z,8.80
2017-06-20T07:44:37.812Z,7.80
2017-06-20T07:47:06.123Z,8.10
2017-06-20T07:49:34.453Z,7.63
2017-06-20T07:52:03.452Z,7.33
2017-06-20T07:54:32.475Z,7.13
2017-06-20T07:57:00.714Z,7.70
2017-06-20T07:59:29.852Z,7.53
2017-06-20T08:01:58.097Z,7.43
2017-06-20T08:04:27.098Z,7.03
2017-06-20T08:06:55.407Z,7.30
2017-06-20T08:09:23.637Z,7.50
2017-06-20T08:11:52.660Z,7.03
2017-06-20T08:14:20.957Z,7.10
2017-06-20T08:16:49.281Z,7.60
2017-06-20T08:19:18.364Z,7.17
2017-06-20T08:21:53.110Z,8.00
2017-06-20T08:24:21.397Z,6.80
2017-06-20T08:26:50.373Z,7.33
2017-06-20T08:29:19.406Z,6.40
2017-06-20T08:31:47.644Z,6.57
2017-06-20T08:34:15.898Z,5.90
2017-06-20T08:36:44.958Z,6.23
2017-06-20T08:39:13.200Z,5.57
2017-06-20T08:41:41.463Z,5.93
2017-06-20T08:44:09.781Z,5.30
2017-06-20T08:46:38.110Z,6.07
2017-06-20T08:49:07.197Z,6.10
2017-06-20T08:51:36.253Z,6.20
2017-06-20T08:54:04.485Z,6.17
2017-06-20T08:56:32.748Z,6.50
2017-06-20T08:59:01.745Z,5.47
2017-06-20T09:01:29.998Z,5.70
2017-06-20T09:03:58.339Z,5.40
2017-06-20T09:06:26.578Z,5.53
2017-06-20T09:08:54.835Z,5.87
2017-06-20T09:11:23.842Z,5.23
2017-06-20T09:13:52.164Z,6.43
2017-06-20T09:16:20.438Z,5.63
2017-06-20T09:18:48.690Z,5.27
2017-06-20T09:21:16.980Z,5.30
2017-06-20T09:23:45.209Z,4.50
2017-06-20T09:26:14.273Z,4.53
2017-06-20T09:28:42.519Z,4.17
2017-06-20T09:31:10.793Z,4.73
2017-06-20T09:33:39.025Z,5.20
2017-06-20T09:36:08.164Z,4.27
2017-06-20T09:38:36.397Z,3.87
2017-06-20T09:41:05.412Z,3.23
2017-06-20T09:43:33.665Z,3.70
2017-06-20T09:46:02.712Z,3.77
2017-06-20T09:48:31.016Z,4.03
2017-06-20T09:50:59.253Z,3.60
2017-06-20T09:53:30.488Z,3.27
2017-06-20T09:55:59.285Z,3.50
2017-06-20T09:58:27.592Z,4.30
2017-06-20T10:15:43.140Z,3.67
2017-06-20T10:35:56.522Z,4.10
2017-06-20T10:56:12.002Z,3.07
2017-06-20T11:16:25.709Z,3.40
2017-06-20T11:36:39.871Z,3.90
2017-06-20T11:53:56.343Z,3.80
2017-06-20T11:56:24.659Z,4.00
2017-06-20T11:58:52.978Z,4.50
2017-06-20T12:01:22.006Z,4.90
2017-06-20T12:03:50.994Z,4.40
2017-06-20T12:06:19.272Z,4.47
2017-06-20T12:08:47.553Z,4.33
2017-06-20T12:11:15.830Z,4.77
2017-06-20T12:13:44.158Z,4.83
2017-06-20T12:16:13.160Z,4.60
2017-06-20T12:18:42.250Z,4.27
2017-06-20T12:21:10.577Z,4.40
2017-06-20T12:23:38.838Z,4.40
2017-06-20T12:26:07.130Z,5.07
2017-06-20T12:28:35.432Z,4.40
2017-06-20T12:31:03.710Z,5.27
2017-06-20T12:33:32.057Z,4.83
2017-06-20T12:36:00.287Z,4.40
2017-06-20T12:38:29.316Z,5.37
2017-06-20T12:40:57.554Z,4.43
2017-06-20T12:43:26.685Z,5.03
2017-06-20T12:45:54.923Z,5.33
2017-06-20T12:48:24.006Z,5.13
2017-06-20T12:50:52.237Z,4.93
2017-06-20T12:53:20.518Z,5.10
2017-06-20T12:55:48.881Z,4.90
2017-06-20T12:58:17.187Z,5.77
2017-06-20T13:00:45.697Z,4.80
2017-06-20T13:03:14.217Z,5.40
2017-06-20T13:05:42.509Z,5.07
2017-06-20T13:08:10.741Z,4.67
2017-06-20T13:10:39.145Z,4.50
2017-06-20T13:13:07.398Z,5.17
2017-06-20T13:15:35.649Z,4.50
2017-06-20T13:18:03.897Z,5.07
2017-06-20T13:20:32.137Z,5.27
2017-06-20T13:23:00.398Z,5.60
2017-06-20T13:25:28.774Z,5.53
2017-06-20T13:27:57.775Z,6.10
2017-06-20T13:30:26.021Z,5.63
2017-06-20T13:32:55.037Z,6.10
2017-06-20T13:35:23.289Z,5.90
2017-06-20T13:37:52.290Z,6.00
2017-06-20T13:40:21.380Z,5.80
2017-06-20T13:42:50.412Z,6.20
2017-06-20T13:45:18.693Z,6.37
2017-06-20T13:47:46.940Z,6.17
2017-06-20T13:50:15.208Z,6.43
2017-06-20T13:52:43.517Z,6.30
2017-06-20T13:55:11.837Z,6.30
2017-06-20T13:57:40.108Z,5.43
2017-06-20T14:00:08.353Z,7.00
2017-06-20T14:02:36.618Z,6.40
2017-06-20T14:05:04.899Z,5.87
2017-06-20T14:07:33.168Z,6.20
2017-06-20T14:10:01.429Z,6.67
2017-06-20T14:12:29.671Z,6.30
2017-06-20T14:14:58.748Z,6.47
2017-06-20T14:17:27.004Z,6.43
2017-06-20T14:19:55.252Z,6.03
2017-06-20T14:22:23.507Z,6.27
2017-06-20T14:24:51.760Z,6.50
2017-06-20T14:27:20.904Z,6.53
2017-06-20T14:29:49.149Z,6.87
2017-06-20T14:32:18.307Z,6.20
2017-06-20T14:34:46.649Z,6.90
2017-06-20T14:37:14.905Z,6.40
2017-06-20T14:39:43.345Z,6.33
2017-06-20T14:42:11.637Z,6.13
2017-06-20T14:44:40.005Z,6.50
2017-06-20T14:47:08.316Z,6.80
2017-06-20T14:49:36.719Z,6.50
2017-06-20T14:52:05.121Z,6.40
2017-06-20T14:54:33.341Z,6.63
2017-06-20T14:57:01.746Z,7.20
2017-06-20T14:59:30.138Z,7.07
2017-06-20T15:01:58.477Z,6.33
2017-06-20T15:04:26.832Z,6.10
2017-06-20T15:06:55.171Z,6.73
2017-06-20T15:09:23.552Z,6.40
2017-06-20T15:11:52.824Z,6.00
2017-06-20T15:14:21.088Z,6.10
2017-06-20T15:16:49.572Z,6.30
2017-06-20T15:19:17.956Z,6.67
2017-06-20T15:21:46.268Z,6.83
2017-06-20T15:24:14.769Z,6.30
2017-06-20T15:26:43.008Z,6.00
2017-06-20T15:29:11.249Z,6.03
2017-06-20T15:31:39.566Z,5.80
2017-06-20T15:34:07.903Z,6.20
2017-06-20T15:36:36.556Z,6.23
2017-06-20T15:39:04.844Z,5.70
2017-06-20T15:41:34.193Z,6.40
2017-06-20T15:44:02.712Z,5.77
2017-06-20T15:46:30.960Z,5.30
2017-06-20T15:49:00.321Z,5.83
2017-06-20T15:51:29.793Z,5.17
2017-06-20T15:53:58.064Z,5.80
2017-06-20T15:56:27.263Z,6.10
2017-06-20T15:58:55.507Z,5.83
2017-06-20T16:01:23.808Z,6.40
2017-06-20T16:03:52.213Z,5.90
2017-06-20T16:06:21.305Z,5.57
2017-06-20T16:08:49.679Z,5.43
2017-06-20T16:11:18.052Z,6.33
2017-06-20T16:13:46.639Z,5.70
2017-06-20T16:16:14.942Z,6.20
2017-06-20T16:18:43.450Z,5.70
2017-06-20T16:21:11.971Z,6.53
2017-06-20T16:23:40.251Z,5.70
2017-06-20T16:26:09.462Z,5.20
2017-06-20T16:28:37.965Z,4.90
2017-06-20T16:31:06.701Z,5.57
2017-06-20T16:33:35.284Z,5.60
2017-06-20T16:36:03.781Z,6.00
2017-06-20T16:38:32.316Z,5.30
2017-06-20T16:41:01.365Z,5.27
2017-06-20T16:43:30.356Z,5.50
2017-06-20T16:45:59.549Z,5.70
2017-06-20T16:48:27.851Z,6.00
2017-06-20T16:50:56.300Z,5.90
2017-06-20T16:53:25.482Z,5.33
2017-06-20T16:55:53.715Z,6.03
2017-06-20T16:58:22.225Z,5.67
2017-06-20T17:00:50.495Z,5.30
2017-06-20T17:03:18.921Z,6.20
2017-06-20T17:05:47.271Z,6.40
2017-06-20T17:08:15.511Z,7.00
2017-06-20T17:10:43.855Z,6.37
2017-06-20T17:13:12.141Z,5.80
2017-06-20T17:15:40.508Z,5.60
2017-06-20T17:18:08.749Z,5.50
2017-06-20T17:20:37.946Z,6.20
2017-06-20T17:23:07.033Z,7.00
2017-06-20T17:25:35.297Z,7.17
2017-06-20T17:28:03.658Z,6.13
2017-06-20T17:30:31.922Z,6.03
2017-06-20T17:33:00.517Z,6.20
2017-06-20T17:35:28.869Z,6.73
2017-06-20T17:37:57.233Z,6.73
2017-06-20T17:40:25.531Z,6.27
2017-06-20T17:42:53.823Z,7.17
2017-06-20T17:45:22.946Z,6.40
2017-06-20T17:47:51.197Z,6.40
2017-06-20T17:50:19.651Z,6.40
2017-06-20T17:52:48.720Z,6.50
2017-06-20T17:55:17.311Z,6.37
2017-06-20T17:57:45.548Z,5.80
2017-06-20T18:00:13.846Z,6.13
2017-06-20T18:02:43.101Z,7.50
2017-06-20T18:05:11.518Z,8.53
2017-06-20T18:07:39.805Z,7.90
2017-06-20T18:10:08.037Z,6.97
2017-06-20T18:12:36.322Z,7.70
2017-06-20T18:15:04.607Z,7.80
2017-06-20T18:17:32.913Z,7.73
2017-06-20T18:20:01.604Z,6.60
2017-06-20T18:22:29.994Z,7.00
2017-06-20T18:24:59.283Z,6.80
2017-06-20T18:27:27.952Z,7.03
2017-06-20T18:29:56.342Z,6.43
2017-06-20T18:32:24.613Z,6.07
2017-06-20T18:34:53.025Z,6.27
2017-06-20T18:37:21.399Z,6.70
2017-06-20T18:39:49.756Z,8.23
2017-06-20T18:42:18.200Z,8.70
2017-06-20T18:44:46.467Z,7.87
2017-06-20T18:47:14.731Z,9.13
2017-06-20T18:49:43.067Z,9.40
2017-06-20T18:52:11.545Z,9.73
2017-06-20T18:54:39.839Z,10.60
2017-06-20T18:57:08.276Z,9.70
2017-06-20T18:59:36.595Z,10.17
2017-06-20T19:02:05.050Z,9.37
2017-06-20T19:04:34.076Z,9.70
2017-06-20T19:07:02.458Z,9.97
2017-06-20T19:09:30.744Z,9.30
2017-06-20T19:11:59.099Z,8.97
2017-06-20T19:14:27.398Z,10.27
2017-06-20T19:16:55.669Z,10.70
2017-06-20T19:19:24.611Z,9.67
2017-06-20T19:21:52.864Z,10.00
2017-06-20T19:24:21.355Z,9.50
2017-06-20T19:26:49.726Z,9.70
2017-06-20T19:29:18.103Z,9.70
2017-06-20T19:31:47.304Z,9.47
2017-06-20T19:34:16.061Z,9.50
2017-06-20T19:36:44.972Z,9.33
2017-06-20T19:39:13.404Z,9.43
2017-06-20T19:41:41.792Z,10.40
2017-06-20T19:44:10.104Z,10.77
2017-06-20T19:46:38.349Z,11.60
2017-06-20T19:49:06.637Z,10.43
2017-06-20T19:51:34.960Z,9.60
2017-06-20T19:54:04.101Z,9.53
2017-06-20T19:56:32.397Z,11.10
2017-06-20T19:59:00.639Z,9.97
2017-06-20T20:01:29.094Z,9.70
2017-06-20T20:03:57.397Z,9.93
2017-06-20T20:06:25.896Z,10.60
2017-06-20T20:08:54.258Z,10.40
2017-06-20T20:11:22.573Z,10.47
2017-06-20T20:13:51.725Z,10.20
2017-06-20T20:16:20.167Z,10.97
2017-06-20T20:18:49.254Z,10.20
2017-06-20T20:21:17.577Z,10.47
2017-06-20T20:23:45.917Z,10.67
2017-06-20T20:26:14.268Z,9.80
2017-06-20T20:28:43.490Z,9.97
2017-06-20T20:31:11.809Z,10.40
2017-06-20T20:33:40.292Z,10.37
2017-06-20T20:36:08.595Z,10.50
2017-06-20T20:38:36.888Z,11.17
2017-06-20T20:41:05.309Z,10.37
2017-06-20T20:43:33.699Z,11.07
2017-06-20T20:46:02.110Z,10.40
2017-06-20T20:48:30.640Z,11.17
2017-06-20T20:50:59.028Z,10.07
2017-06-20T20:53:27.345Z,10.70
2017-06-20T20:55:55.662Z,10.90
2017-06-20T20:58:24.121Z,10.70
2017-06-20T21:00:53.411Z,12.23
2017-06-20T21:03:21.794Z,10.37
2017-06-20T21:05:50.855Z,10.13
2017-06-20T21:08:19.209Z,11.50
2017-06-20T21:10:47.649Z,11.33
2017-06-20T21:13:15.911Z,11.30
2017-06-20T21:15:45.062Z,10.70
2017-06-20T21:18:13.940Z,10.70
2017-06-20T21:20:42.598Z,11.23
2017-06-20T21:23:10.920Z,10.80
2017-06-20T21:25:39.423Z,11.20
2017-06-20T21:28:07.733Z,11.10
2017-06-20T21:30:36.096Z,10.23
2017-06-20T21:33:05.164Z,11.57
2017-06-20T21:35:33.680Z,10.90
2017-06-20T21:38:02.978Z,10.67
2017-06-20T21:40:31.298Z,10.90
2017-06-20T21:42:59.670Z,10.77
2017-06-20T21:45:27.997Z,10.57
2017-06-20T21:47:56.270Z,10.43
2017-06-20T21:50:25.348Z,11.00
2017-06-20T21:52:53.963Z,10.40
2017-06-20T21:55:23.051Z,10.10
2017-06-20T21:57:51.520Z,10.40
2017-06-20T22:00:19.803Z,9.50
2017-06-20T22:02:48.949Z,11.27
2017-06-20T22:05:17.228Z,11.10
2017-06-20T22:07:45.647Z,10.10
2017-06-20T22:10:13.891Z,10.57
2017-06-20T22:12:42.241Z,9.50
2017-06-20T22:15:10.673Z,10.10
2017-06-20T22:17:39.005Z,9.70
2017-06-20T22:20:07.373Z,9.67
2017-06-20T22:22:35.900Z,9.13
2017-06-20T22:25:04.214Z,8.73
2017-06-20T22:27:33.321Z,8.93
2017-06-20T22:30:02.332Z,9.30
2017-06-20T22:32:30.639Z,9.80
2017-06-20T22:34:58.929Z,9.83
2017-06-20T22:37:27.210Z,9.60
2017-06-20T22:39:55.570Z,9.27
2017-06-20T22:42:23.835Z,9.23
2017-06-20T22:44:52.084Z,9.30
2017-06-20T22:47:20.444Z,9.67
2017-06-20T22:49:48.717Z,8.40
2017-06-20T22:52:16.974Z,9.00
2017-06-20T22:54:46.033Z,9.20
2017-06-20T22:57:14.406Z,9.50
2017-06-20T22:59:43.625Z,9.73
2017-06-20T23:02:12.010Z,10.20
2017-06-20T23:04:41.095Z,8.60
2017-06-20T23:07:09.464Z,9.40
2017-06-20T23:09:37.761Z,8.73
2017-06-20T23:12:07.105Z,9.17
2017-06-20T23:14:35.397Z,9.10
2017-06-20T23:17:03.678Z,8.60
2017-06-20T23:19:31.947Z,9.57
2017-06-20T23:22:00.285Z,8.23
2017-06-20T23:24:29.369Z,8.50
2017-06-20T23:26:58.477Z,8.60
2017-06-20T23:29:26.789Z,8.77
2017-06-20T23:31:55.261Z,8.37
2017-06-20T23:34:23.706Z,8.33
2017-06-20T23:36:52.048Z,9.00
2017-06-20T23:39:20.351Z,8.10
2017-06-20T23:41:48.685Z,8.60
2017-06-20T23:44:16.976Z,8.97
2017-06-20T23:46:45.296Z,9.30
2017-06-20T23:49:14.323Z,8.90
2017-06-20T23:51:42.661Z,8.33
2017-06-20T23:54:10.997Z,9.10
2017-06-20T23:56:39.555Z,9.13
2017-06-20T23:59:07.822Z,8.70
